Owls Head, New York
Current Conditions -  °F | °C
As of 5:10 AM on Thursday 23 Oct 2014 (Local Time) from KSLK Reporting Station
Overcast Overcast  
Wind Chill: 32°   Ceiling: 1400
Heat Index: 39°   Visibility: 10mi
Dew Point: 36°   Wind: 10mph
Humidity: 89%   Direction: 10°N
Pressure: 29.99"   Gusts: NA
Location:  44.73°N, 74.17°W
Report Text: KSLK 230910Z AUTO 01009KT 10SM OVC014 04/02 A2999 RMK AO2 T00390022
Loading
Personal Weather Stations






























Interactive Weather Map
Tropical Storm Tracking
New forecast layout! Learn more

10-Day Weather Forecast

Advertisements
Track Severe Weather on mobile